Time;durP1;ratioP1;P1;durP2;ratioP2;P2;SDS_P1;SDS_P2;PMS_P1;PMS_P2;Temp;Humidity;BMP_temperature;BMP_pressure;BME280_temperature;BME280_humidity;BME280_pressure;Samples;Min_cycle;Max_cycle;Signal;HPM_P1;HPM_P2
2022/07/05 00:00:59;;;;;;;4.43;3.58;;;14.30;99.90;;;;;;5078031;28;20063;-84
2022/07/05 00:03:25;;;;;;;6.32;3.63;;;14.30;99.90;;;;;;5083659;28;20050;-84
2022/07/05 00:05:51;;;;;;;6.30;3.30;;;14.20;99.90;;;;;;5088535;28;20411;-84
2022/07/05 00:08:17;;;;;;;4.40;3.95;;;14.20;99.90;;;;;;5076179;28;20043;-84
2022/07/05 00:10:43;;;;;;;4.05;3.60;;;14.20;99.90;;;;;;5085358;28;20119;-84
2022/07/05 00:13:09;;;;;;;6.47;3.95;;;14.20;99.90;;;;;;5065977;28;20048;-84
2022/07/05 00:15:35;;;;;;;4.00;3.25;;;14.20;99.90;;;;;;5079943;28;20044;-83
2022/07/05 00:18:00;;;;;;;6.10;3.67;;;14.10;99.90;;;;;;5103063;28;20054;-84
2022/07/05 00:20:26;;;;;;;8.17;3.60;;;14.10;99.90;;;;;;5083170;28;20043;-84
2022/07/05 00:22:52;;;;;;;4.75;3.53;;;14.10;99.90;;;;;;5088361;28;20290;-84
2022/07/05 00:25:18;;;;;;;4.80;3.50;;;14.00;99.90;;;;;;5078702;28;20050;-83
2022/07/05 00:27:43;;;;;;;6.70;3.90;;;13.90;99.90;;;;;;5081352;28;20031;-84
2022/07/05 00:30:10;;;;;;;4.60;3.75;;;13.80;99.90;;;;;;5086124;28;20761;-84
2022/07/05 00:32:37;;;;;;;6.45;4.18;;;13.70;99.90;;;;;;5082948;28;20032;-85
2022/07/05 00:35:03;;;;;;;;;;;13.60;99.90;;;;;;5085576;28;20043;-84
2022/07/05 00:37:29;;;;;;;7.95;4.80;;;13.50;99.90;;;;;;5075738;28;19916;-84
2022/07/05 00:39:54;;;;;;;6.32;3.90;;;13.50;99.90;;;;;;5068498;28;20507;-83
2022/07/05 00:42:20;;;;;;;7.72;3.83;;;13.50;99.90;;;;;;5085328;28;20044;-83
2022/07/05 00:44:46;;;;;;;5.90;4.28;;;13.40;99.90;;;;;;5109046;23;20048;-84
2022/07/05 00:47:12;;;;;;;6.00;4.23;;;13.40;99.90;;;;;;5076332;28;20047;-84
2022/07/05 00:49:39;;;;;;;9.40;4.20;;;13.30;99.90;;;;;;5058201;28;20278;-84
2022/07/05 00:52:06;;;;;;;6.55;4.10;;;13.30;99.90;;;;;;5062761;28;20045;-84
2022/07/05 00:54:34;;;;;;;6.50;4.47;;;13.20;99.90;;;;;;5077417;28;20098;-83
2022/07/05 00:57:00;;;;;;;6.05;4.22;;;13.20;99.90;;;;;;5065494;28;20036;-84
2022/07/05 00:59:27;;;;;;;6.43;4.30;;;13.20;99.90;;;;;;5076697;28;20089;-83
2022/07/05 01:01:52;;;;;;;5.00;4.18;;;13.20;99.90;;;;;;5081751;28;20036;-83
2022/07/05 01:04:18;;;;;;;6.30;4.10;;;13.20;99.90;;;;;;5065477;28;20040;-83
2022/07/05 01:06:47;;;;;;;8.47;4.47;;;13.10;99.90;;;;;;5063945;28;20274;-84
2022/07/05 01:09:14;;;;;;;10.13;4.25;;;13.10;99.90;;;;;;5082513;28;20275;-83
2022/07/05 01:11:40;;;;;;;7.07;4.35;;;13.10;99.90;;;;;;5085210;28;20040;-84
2022/07/05 01:14:10;;;;;;;5.97;4.45;;;13.00;99.90;;;;;;5081082;28;20045;-83
2022/07/05 01:16:38;;;;;;;5.82;4.50;;;13.00;99.90;;;;;;5082811;28;20063;-84
2022/07/05 01:19:08;;;;;;;5.47;4.38;;;12.90;99.90;;;;;;5088724;28;20406;-83
2022/07/05 01:21:41;;;;;;;6.68;3.70;;;12.90;99.90;;;;;;5061500;28;20048;-83
2022/07/05 01:24:09;;;;;;;6.88;4.30;;;12.90;99.90;;;;;;5071246;28;20094;-83
2022/07/05 01:26:37;;;;;;;9.00;4.25;;;13.00;99.90;;;;;;5083463;28;20391;-84
2022/07/05 01:29:02;;;;;;;6.20;4.50;;;13.00;99.90;;;;;;5091663;28;20061;-84
2022/07/05 01:31:29;;;;;;;7.00;4.75;;;13.00;99.90;;;;;;5081393;28;20037;-83
2022/07/05 01:33:55;;;;;;;6.65;5.05;;;12.90;99.90;;;;;;5063647;28;20071;-83
2022/07/05 01:36:21;;;;;;;6.40;4.97;;;12.80;99.90;;;;;;5086255;28;20080;-84
2022/07/05 01:38:47;;;;;;;7.70;4.55;;;12.80;99.90;;;;;;5080950;28;20044;-83
2022/07/05 01:41:12;;;;;;;5.82;4.53;;;12.80;99.90;;;;;;5086035;28;20105;-84
2022/07/05 01:43:39;;;;;;;6.05;4.60;;;12.80;99.90;;;;;;5086102;28;20040;-83
2022/07/05 01:46:08;;;;;;;5.55;4.38;;;12.70;99.90;;;;;;5072197;28;20043;-83
2022/07/05 01:48:36;;;;;;;7.45;4.70;;;12.70;99.90;;;;;;5086771;28;20036;-84
2022/07/05 01:51:26;;;;;;;6.05;5.07;;;12.70;99.90;;;;;;5074500;28;20054;-86
2022/07/05 01:53:53;;;;;;;5.93;4.50;;;12.60;99.90;;;;;;5110127;28;20044;-85
2022/07/05 01:56:19;;;;;;;6.18;4.53;;;12.60;99.90;;;;;;5086701;28;20092;-83
2022/07/05 01:58:45;;;;;;;5.70;4.03;;;12.70;99.90;;;;;;5086976;28;20040;-83
2022/07/05 02:01:12;;;;;;;;;;;12.60;99.90;;;;;;5091650;28;20040;-86
2022/07/05 02:03:39;;;;;;;7.05;4.72;;;12.60;99.90;;;;;;5076575;28;20326;-84
2022/07/05 02:06:06;;;;;;;9.70;4.97;;;12.60;99.90;;;;;;5087865;28;20121;-83
2022/07/05 02:08:31;;;;;;;5.57;5.07;;;12.60;99.90;;;;;;5084569;28;20054;-84
2022/07/05 02:10:57;;;;;;;5.63;4.95;;;12.60;99.90;;;;;;5065072;28;20032;-82
2022/07/05 02:13:23;;;;;;;6.30;4.80;;;12.60;99.90;;;;;;5091289;28;20032;-84
2022/07/05 02:15:49;;;;;;;6.35;4.75;;;12.50;99.90;;;;;;5085499;28;20036;-84
2022/07/05 02:18:15;;;;;;;6.80;4.63;;;12.50;99.90;;;;;;5083140;28;20427;-84
2022/07/05 02:20:41;;;;;;;7.53;4.85;;;12.50;99.90;;;;;;5086669;28;20031;-84
2022/07/05 02:23:07;;;;;;;5.38;4.88;;;12.50;99.90;;;;;;5087214;28;20075;-84
2022/07/05 02:25:33;;;;;;;6.05;4.72;;;12.50;99.90;;;;;;5086373;28;20373;-84
2022/07/05 02:27:59;;;;;;;;;;;12.50;99.90;;;;;;5091955;28;20039;-85
2022/07/05 02:30:25;;;;;;;6.60;4.70;;;12.40;99.90;;;;;;5088247;28;19985;-84
2022/07/05 02:32:51;;;;;;;5.53;4.65;;;12.40;99.90;;;;;;5088237;28;20042;-84
2022/07/05 02:35:16;;;;;;;7.60;4.83;;;12.40;99.90;;;;;;5076974;28;20441;-84
2022/07/05 02:37:42;;;;;;;6.30;4.83;;;12.50;99.90;;;;;;5068526;28;20296;-84
2022/07/05 02:40:12;;;;;;;5.47;4.38;;;12.40;99.90;;;;;;5087704;28;20035;-84
2022/07/05 02:42:38;;;;;;;5.47;4.70;;;12.40;99.90;;;;;;5083924;28;20097;-85
2022/07/05 02:45:05;;;;;;;5.97;4.90;;;12.50;99.90;;;;;;5089037;28;20048;-84
2022/07/05 02:47:34;;;;;;;6.65;4.85;;;12.40;99.90;;;;;;5073664;28;20097;-84
2022/07/05 02:50:05;;;;;;;7.28;4.93;;;12.40;99.90;;;;;;5071849;28;20039;-84
2022/07/05 02:52:31;;;;;;;7.47;4.70;;;12.30;99.90;;;;;;5078721;28;20377;-84
2022/07/05 02:54:56;;;;;;;5.85;4.60;;;12.30;99.90;;;;;;5065401;28;20058;-82
2022/07/05 02:57:22;;;;;;;9.23;5.23;;;12.20;99.90;;;;;;5066033;28;20089;-84
2022/07/05 02:59:48;;;;;;;6.33;4.80;;;12.10;99.90;;;;;;5080871;28;20290;-84
2022/07/05 03:02:13;;;;;;;6.97;5.15;;;12.10;99.90;;;;;;5065409;28;20051;-84
2022/07/05 03:04:39;;;;;;;7.60;5.13;;;12.10;99.90;;;;;;5087797;28;20058;-84
2022/07/05 03:07:05;;;;;;;7.17;5.10;;;12.10;99.90;;;;;;5082585;28;20133;-85
2022/07/05 03:09:30;;;;;;;8.15;5.65;;;12.00;99.90;;;;;;5068680;28;20028;-84
2022/07/05 03:11:56;;;;;;;7.65;5.18;;;12.00;99.90;;;;;;5067791;28;20032;-84
2022/07/05 03:14:22;;;;;;;7.13;4.97;;;12.00;99.90;;;;;;5082324;28;20028;-84
2022/07/05 03:16:47;;;;;;;6.03;5.40;;;12.10;99.90;;;;;;5082344;28;20284;-84
2022/07/05 03:19:13;;;;;;;6.70;5.03;;;12.10;99.90;;;;;;5065139;28;20642;-83
2022/07/05 03:21:39;;;;;;;8.80;5.70;;;12.00;99.90;;;;;;5087755;28;20519;-84
2022/07/05 03:24:04;;;;;;;6.37;5.50;;;12.10;99.90;;;;;;5043340;28;20778;-84
2022/07/05 03:26:30;;;;;;;7.25;5.20;;;12.00;99.90;;;;;;5069406;28;20040;-84
2022/07/05 03:28:56;;;;;;;8.83;4.97;;;12.00;99.90;;;;;;5085990;28;20131;-84
2022/07/05 03:31:21;;;;;;;6.57;5.20;;;12.00;99.90;;;;;;5066263;28;20097;-84
2022/07/05 03:33:47;;;;;;;8.45;5.60;;;12.00;99.90;;;;;;5083695;28;20278;-83
2022/07/05 03:36:13;;;;;;;8.03;6.13;;;11.90;99.90;;;;;;5082485;28;20115;-82
2022/07/05 03:38:38;;;;;;;6.73;5.53;;;11.90;99.90;;;;;;5083659;28;20068;-84
2022/07/05 03:41:04;;;;;;;9.30;5.47;;;11.90;99.90;;;;;;5072783;28;20277;-84
2022/07/05 03:43:30;;;;;;;8.57;5.75;;;12.00;99.90;;;;;;5088127;28;20298;-83
2022/07/05 03:45:55;;;;;;;9.13;6.07;;;11.90;99.90;;;;;;5080934;28;20085;-84
2022/07/05 03:48:21;;;;;;;7.80;6.10;;;12.00;99.90;;;;;;5063532;28;20047;-83
2022/07/05 03:50:47;;;;;;;10.40;6.20;;;12.00;99.90;;;;;;5085852;28;20072;-83
2022/07/05 03:53:12;;;;;;;6.97;5.60;;;12.00;99.90;;;;;;5083033;28;20050;-84
2022/07/05 03:55:38;;;;;;;8.07;5.87;;;11.90;99.90;;;;;;5067421;28;20051;-82
2022/07/05 03:58:04;;;;;;;8.80;5.73;;;11.90;99.90;;;;;;5086167;28;20297;-83
2022/07/05 04:00:29;;;;;;;7.40;5.70;;;11.90;99.90;;;;;;5079185;28;20280;-84
2022/07/05 04:02:55;;;;;;;7.17;5.30;;;11.90;99.90;;;;;;5063133;28;20728;-84
2022/07/05 04:05:21;;;;;;;10.80;6.47;;;12.00;99.90;;;;;;5051790;28;20276;-84
2022/07/05 04:07:52;;;;;;;7.15;5.75;;;12.00;99.90;;;;;;5069427;28;20064;-80
2022/07/05 04:10:18;;;;;;;5.50;4.93;;;12.00;99.90;;;;;;5066559;28;20051;-84
2022/07/05 04:12:44;;;;;;;7.65;6.03;;;12.00;99.90;;;;;;5081701;28;20123;-84
2022/07/05 04:15:11;;;;;;;8.05;5.70;;;12.00;99.90;;;;;;5077214;28;20103;-85
2022/07/05 04:17:55;;;;;;;8.88;6.30;;;12.00;99.90;;;;;;5085451;28;20399;-84
2022/07/05 04:20:22;;;;;;;7.28;6.10;;;12.00;99.90;;;;;;5086614;28;20035;-82
2022/07/05 04:22:51;;;;;;;8.65;5.50;;;12.10;99.90;;;;;;5085783;28;20119;-83
2022/07/05 04:25:18;;;;;;;8.48;6.10;;;12.10;99.90;;;;;;5081333;28;20031;-82
2022/07/05 04:27:49;;;;;;;8.50;6.25;;;12.20;99.90;;;;;;5085752;28;20089;-83
2022/07/05 04:30:15;;;;;;;8.52;6.63;;;12.30;99.90;;;;;;5084358;28;20088;-85
2022/07/05 04:32:42;;;;;;;7.60;6.40;;;12.50;99.90;;;;;;5076901;28;20049;-84
2022/07/05 04:35:08;;;;;;;9.60;6.50;;;12.60;99.90;;;;;;5064046;28;20035;-84
2022/07/05 04:37:34;;;;;;;8.32;6.47;;;12.70;99.90;;;;;;5080838;28;20036;-83
2022/07/05 04:40:00;;;;;;;10.50;6.70;;;12.80;99.90;;;;;;5065513;28;20385;-84
2022/07/05 04:42:25;;;;;;;9.93;7.13;;;12.90;99.90;;;;;;5073212;28;20032;-83
2022/07/05 04:44:51;;;;;;;8.75;6.90;;;13.00;99.90;;;;;;5062475;28;20456;-84
2022/07/05 04:47:17;;;;;;;7.78;6.65;;;13.10;99.90;;;;;;5071990;28;20047;-82
2022/07/05 04:49:42;;;;;;;11.88;6.93;;;13.20;99.90;;;;;;5085116;28;20040;-83
2022/07/05 04:52:08;;;;;;;8.23;6.73;;;13.30;99.90;;;;;;5054135;28;20039;-83
2022/07/05 04:54:36;;;;;;;8.07;6.70;;;13.40;99.90;;;;;;5087921;28;20294;-83
2022/07/05 04:57:02;;;;;;;9.30;6.43;;;13.40;99.90;;;;;;5071727;28;20289;-84
2022/07/05 04:59:28;;;;;;;7.75;6.20;;;13.50;99.90;;;;;;5084987;28;20036;-84
2022/07/05 05:01:54;;;;;;;8.50;6.10;;;13.60;99.90;;;;;;5081989;28;20024;-84
2022/07/05 05:04:19;;;;;;;7.65;5.78;;;13.60;99.90;;;;;;5085586;28;20048;-83
2022/07/05 05:06:45;;;;;;;6.95;6.10;;;13.70;99.90;;;;;;5066999;28;20028;-83
2022/07/05 05:09:11;;;;;;;9.07;6.57;;;13.70;99.90;;;;;;5105119;28;20076;-83
2022/07/05 05:11:37;;;;;;;6.25;5.45;;;13.70;99.90;;;;;;5082033;28;20044;-83
2022/07/05 05:14:02;;;;;;;8.43;5.68;;;13.80;99.90;;;;;;5065123;28;20507;-84
2022/07/05 05:16:28;;;;;;;6.50;5.10;;;13.80;99.90;;;;;;5085253;28;20076;-83
2022/07/05 05:18:54;;;;;;;8.90;5.70;;;13.90;99.90;;;;;;5058837;28;20051;-83
2022/07/05 05:21:19;;;;;;;8.00;5.05;;;13.90;99.90;;;;;;5077229;28;20040;-83
2022/07/05 05:23:45;;;;;;;9.73;5.72;;;13.90;99.90;;;;;;5065091;28;20484;-84
2022/07/05 05:26:11;;;;;;;8.35;6.03;;;13.90;99.90;;;;;;5061056;28;20040;-84
2022/07/05 05:28:37;;;;;;;7.15;5.35;;;14.00;99.90;;;;;;5083341;28;20036;-84
2022/07/05 05:31:02;;;;;;;6.97;5.53;;;14.00;99.90;;;;;;5082067;28;20082;-84
2022/07/05 05:33:28;;;;;;;6.70;5.70;;;14.00;99.90;;;;;;5072365;28;20048;-83
2022/07/05 05:35:54;;;;;;;7.40;5.40;;;14.20;99.90;;;;;;5061351;28;20127;-83
2022/07/05 05:38:19;;;;;;;6.03;5.43;;;14.30;99.90;;;;;;5088047;28;20281;-85
2022/07/05 05:40:45;;;;;;;6.40;4.50;;;14.50;99.90;;;;;;5087798;28;20281;-84
2022/07/05 05:43:11;;;;;;;5.67;4.23;;;14.60;99.90;;;;;;5056390;28;20359;-84
2022/07/05 05:45:37;;;;;;;5.63;4.35;;;14.80;99.90;;;;;;5045700;28;20822;-86
2022/07/05 05:48:03;;;;;;;4.63;4.13;;;15.00;99.90;;;;;;5079979;28;20051;-84
2022/07/05 05:50:34;;;;;;;4.07;3.33;;;15.20;99.90;;;;;;5061810;28;20087;-83
2022/07/05 05:53:00;;;;;;;5.97;2.92;;;15.40;99.90;;;;;;5083149;28;20039;-83
2022/07/05 05:55:28;;;;;;;5.63;2.70;;;15.70;99.90;;;;;;5071828;28;20547;-84
2022/07/05 05:57:54;;;;;;;5.07;2.90;;;15.80;99.90;;;;;;5088321;28;20039;-84
2022/07/05 06:00:21;;;;;;;3.25;2.53;;;16.10;99.90;;;;;;5085871;28;20043;-84
2022/07/05 06:02:49;;;;;;;6.05;2.90;;;16.30;99.90;;;;;;5088487;28;20036;-84
2022/07/05 06:05:15;;;;;;;4.70;2.40;;;16.50;99.90;;;;;;5063985;28;20039;-84
2022/07/05 06:07:50;;;;;;;4.65;2.33;;;16.80;99.90;;;;;;5090554;28;20028;-85
2022/07/05 06:10:27;;;;;;;3.45;1.85;;;17.40;99.90;;;;;;5077318;28;20028;-84
2022/07/05 06:12:53;;;;;;;;;;;18.00;99.90;;;;;;5096100;28;20546;-84
2022/07/05 06:15:20;;;;;;;4.10;2.10;;;18.50;99.90;;;;;;5086172;28;19938;-84
2022/07/05 06:17:46;;;;;;;2.20;1.58;;;18.90;99.90;;;;;;5074097;28;20043;-84
2022/07/05 06:20:13;;;;;;;;;;;19.40;99.90;;;;;;5092806;28;20087;-85
2022/07/05 06:22:39;;;;;;;4.50;1.50;;;19.60;99.90;;;;;;5084054;28;19990;-84
2022/07/05 06:25:05;;;;;;;4.70;1.40;;;19.80;99.90;;;;;;5065590;28;20545;-84
2022/07/05 06:27:31;;;;;;;3.92;0.90;;;20.10;99.90;;;;;;5073185;28;20035;-83
2022/07/05 06:29:57;;;;;;;2.17;1.02;;;20.30;99.90;;;;;;5065896;28;20032;-83
2022/07/05 06:32:23;;;;;;;3.00;0.90;;;20.70;99.90;;;;;;5055916;28;20483;-83
2022/07/05 06:34:49;;;;;;;2.72;0.85;;;20.70;99.90;;;;;;5066706;28;20036;-84
2022/07/05 06:37:15;;;;;;;3.03;0.90;;;20.70;99.90;;;;;;5083208;28;20044;-83
2022/07/05 06:39:40;;;;;;;3.10;0.82;;;20.70;99.90;;;;;;5088198;28;20511;-85
2022/07/05 06:42:06;;;;;;;3.35;1.08;;;20.80;99.90;;;;;;5082816;28;20047;-83
2022/07/05 06:44:33;;;;;;;4.32;0.80;;;20.90;99.90;;;;;;5090880;28;20361;-84
2022/07/05 06:46:59;;;;;;;3.60;1.13;;;21.10;99.90;;;;;;5049518;28;20028;-84
2022/07/05 06:49:24;;;;;;;4.82;1.10;;;21.20;99.90;;;;;;5068481;28;20043;-84
2022/07/05 06:51:50;;;;;;;2.45;0.80;;;21.30;99.90;;;;;;5049329;28;20123;-84
2022/07/05 06:54:15;;;;;;;4.05;0.57;;;21.30;99.90;;;;;;5072016;28;20036;-84
2022/07/05 06:56:41;;;;;;;3.63;0.73;;;21.40;99.90;;;;;;5066704;28;20044;-84
2022/07/05 06:59:07;;;;;;;7.75;0.98;;;21.60;99.90;;;;;;5072888;28;20384;-84
2022/07/05 07:01:32;;;;;;;3.17;0.60;;;21.60;99.90;;;;;;5066255;28;20043;-84
2022/07/05 07:03:58;;;;;;;6.18;0.60;;;21.70;99.90;;;;;;5085054;28;20093;-82
2022/07/05 07:06:24;;;;;;;4.03;0.60;;;21.70;99.90;;;;;;5071152;28;20088;-84
2022/07/05 07:11:34;;;;;;;2.00;0.30;;;21.90;99.90;;;;;;5067266;28;20036;-84
2022/07/05 07:13:59;;;;;;;;;;;22.00;99.90;;;;;;5072087;28;20039;-84
2022/07/05 07:16:25;;;;;;;1.90;0.25;;;21.90;99.90;;;;;;5065394;28;19916;-84
2022/07/05 07:18:51;;;;;;;;;;;22.10;99.90;;;;;;5076704;28;20024;-84
2022/07/05 07:21:16;;;;;;;1.60;0.30;;;22.40;99.90;;;;;;5083292;28;19916;-84
2022/07/05 07:23:42;;;;;;;3.17;0.43;;;22.50;99.90;;;;;;5084943;28;20039;-85
2022/07/05 07:26:07;;;;;;;;;;;22.50;99.90;;;;;;5061418;28;20491;-84
2022/07/05 07:28:33;;;;;;;3.40;0.55;;;22.30;99.60;;;;;;5065406;28;19979;-83
2022/07/05 07:30:59;;;;;;;;;;;21.90;99.90;;;;;;5070222;28;20550;-83
2022/07/05 07:33:24;;;;;;;2.35;0.40;;;21.50;99.90;;;;;;5076587;28;19915;-84
2022/07/05 07:35:50;;;;;;;2.40;0.40;;;21.10;99.90;;;;;;5068033;28;20093;-84
2022/07/05 07:38:16;;;;;;;4.38;0.57;;;21.10;99.90;;;;;;5106716;28;20085;-84
2022/07/05 07:40:41;;;;;;;2.50;0.65;;;21.00;99.90;;;;;;5093697;28;20185;-85
2022/07/05 07:43:07;;;;;;;2.28;0.40;;;20.80;99.90;;;;;;5060815;28;20039;-84
2022/07/05 07:45:33;;;;;;;2.90;0.50;;;20.90;99.90;;;;;;5066119;28;20093;-84
2022/07/05 07:47:58;;;;;;;3.90;0.47;;;21.30;99.90;;;;;;5050420;28;20140;-83
2022/07/05 07:50:24;;;;;;;1.50;0.47;;;21.70;99.90;;;;;;5085139;28;20028;-84
2022/07/05 07:52:50;;;;;;;3.83;0.30;;;21.80;99.90;;;;;;5069490;28;20028;-84
2022/07/05 07:55:15;;;;;;;4.28;0.50;;;21.50;99.90;;;;;;5085705;28;20236;-83
2022/07/05 07:57:41;;;;;;;1.23;0.38;;;21.30;99.90;;;;;;5083951;28;20043;-83
2022/07/05 08:00:08;;;;;;;3.42;0.50;;;21.10;99.90;;;;;;5062943;28;20035;-84
2022/07/05 08:02:34;;;;;;;5.70;0.70;;;20.80;99.90;;;;;;5067687;28;20036;-83
2022/07/05 08:04:59;;;;;;;2.38;0.50;;;20.80;99.90;;;;;;5066527;28;20043;-82
2022/07/05 08:07:26;;;;;;;4.18;0.45;;;20.70;99.90;;;;;;5062038;28;20028;-83
2022/07/05 08:09:52;;;;;;;;;;;20.60;99.90;;;;;;5082145;28;20043;-83
2022/07/05 08:12:19;;;;;;;1.17;0.40;;;20.70;99.90;;;;;;5088439;28;19966;-85
2022/07/05 08:14:45;;;;;;;3.40;0.70;;;20.80;99.90;;;;;;5072947;28;20042;-84
2022/07/05 08:17:12;;;;;;;3.08;0.45;;;21.20;99.90;;;;;;5062448;28;20065;-83
2022/07/05 08:22:22;;;;;;;3.13;0.70;;;22.00;99.90;;;;;;5084702;28;20367;-84
2022/07/05 08:24:49;;;;;;;3.58;0.50;;;22.10;99.90;;;;;;5050241;28;20027;-86
2022/07/05 08:27:14;;;;;;;3.28;0.50;;;21.60;99.90;;;;;;5080856;28;20040;-83
2022/07/05 08:29:41;;;;;;;4.72;0.52;;;21.70;98.70;;;;;;5042415;28;20503;-83
2022/07/05 08:32:07;;;;;;;4.70;0.57;;;21.50;98.30;;;;;;5080881;28;20079;-82
2022/07/05 08:34:33;;;;;;;2.65;0.60;;;21.50;99.30;;;;;;5083716;28;20076;-83
2022/07/05 08:36:59;;;;;;;3.50;0.50;;;21.70;99.50;;;;;;5072602;28;20047;-83
2022/07/05 08:39:26;;;;;;;2.30;0.40;;;21.90;99.60;;;;;;5091515;28;20127;-84
2022/07/05 08:41:52;;;;;;;3.10;0.50;;;22.00;98.50;;;;;;5083637;28;20047;-83
2022/07/05 08:44:19;;;;;;;3.97;0.40;;;21.40;98.90;;;;;;5066514;28;20079;-83
2022/07/05 08:46:46;;;;;;;3.85;0.70;;;21.40;99.30;;;;;;5082338;28;20115;-83
2022/07/05 08:49:14;;;;;;;1.92;0.40;;;21.30;99.60;;;;;;5082885;28;20032;-83
2022/07/05 08:51:42;;;;;;;2.33;0.50;;;21.50;99.60;;;;;;5081638;28;20123;-83
2022/07/05 08:54:11;;;;;;;4.00;0.50;;;21.80;99.60;;;;;;5066277;28;20107;-83
2022/07/05 08:56:40;;;;;;;3.05;0.50;;;22.10;98.90;;;;;;5121319;22;20023;-83
2022/07/05 08:59:06;;;;;;;2.08;0.22;;;22.10;99.40;;;;;;5068893;28;20052;-83
2022/07/05 09:01:34;;;;;;;2.88;0.30;;;22.10;99.00;;;;;;5085919;28;20408;-83
2022/07/05 09:04:03;;;;;;;3.03;0.40;;;22.10;99.30;;;;;;5080347;28;20041;-83
2022/07/05 09:06:32;;;;;;;1.55;0.43;;;22.40;99.90;;;;;;5063484;28;20040;-83
2022/07/05 09:08:59;;;;;;;3.20;0.50;;;23.00;99.30;;;;;;5072018;28;20036;-83
2022/07/05 09:11:35;;;;;;;3.10;0.60;;;23.50;99.40;;;;;;5090754;28;20035;-84
2022/07/05 09:14:03;;;;;;;0.98;0.32;;;23.20;97.90;;;;;;5086417;28;20056;-83
2022/07/05 09:16:31;;;;;;;4.85;0.60;;;22.80;97.90;;;;;;5083838;28;20032;-83
2022/07/05 09:19:04;;;;;;;3.40;0.65;;;23.00;98.50;;;;;;5083543;28;20044;-83
2022/07/05 09:21:29;;;;;;;3.25;0.70;;;23.40;98.40;;;;;;5079941;28;20050;-82
2022/07/05 09:24:00;;;;;;;;;;;23.60;98.00;;;;;;5084150;28;20492;-83
2022/07/05 09:26:35;;;;;;;3.63;0.47;;;23.40;98.20;;;;;;5077969;28;20346;-82
2022/07/05 09:29:02;;;;;;;2.90;0.40;;;23.10;98.00;;;;;;5096144;28;20068;-84
2022/07/05 09:31:33;;;;;;;2.97;0.50;;;22.60;98.30;;;;;;5096518;28;20480;-82
2022/07/05 09:34:09;;;;;;;2.03;0.32;;;22.20;98.00;;;;;;5096668;28;20074;-83
2022/07/05 09:36:56;;;;;;;2.72;0.60;;;22.30;99.00;;;;;;5093567;28;20036;-83
2022/07/05 09:39:34;;;;;;;2.38;0.47;;;22.80;98.20;;;;;;5095815;28;20118;-82
2022/07/05 09:42:18;;;;;;;3.33;0.50;;;23.50;97.40;;;;;;5076884;28;20039;-83
2022/07/05 09:44:48;;;;;;;3.00;0.50;;;23.80;97.40;;;;;;5096356;28;20046;-83
2022/07/05 09:47:16;;;;;;;3.60;0.40;;;23.30;98.00;;;;;;5095954;28;20122;-83
2022/07/05 09:49:44;;;;;;;2.67;0.60;;;23.10;98.30;;;;;;5094198;28;20036;-82
2022/07/05 09:52:12;;;;;;;3.72;0.60;;;22.80;97.60;;;;;;5059173;28;20539;-83
2022/07/05 09:54:37;;;;;;;1.40;0.30;;;22.80;97.20;;;;;;5096374;28;20044;-83
2022/07/05 09:57:03;;;;;;;;;;;22.90;97.50;;;;;;5095697;28;20512;-82
2022/07/05 09:59:29;;;;;;;3.33;0.50;;;22.90;97.50;;;;;;5076569;28;20061;-83
2022/07/05 10:01:54;;;;;;;;;;;23.40;97.70;;;;;;5097070;28;20117;-83
2022/07/05 10:04:20;;;;;;;1.92;0.70;;;23.80;97.90;;;;;;5094504;28;19924;-83
2022/07/05 10:06:46;;;;;;;4.63;0.63;;;24.10;97.30;;;;;;5094422;28;20038;-83
2022/07/05 10:09:14;;;;;;;;;;;23.90;97.20;;;;;;5079468;28;20046;-84
2022/07/05 10:11:43;;;;;;;3.05;0.70;;;23.80;97.00;;;;;;5096434;28;19916;-83
2022/07/05 10:14:16;;;;;;;1.67;0.60;;;24.20;97.70;;;;;;5078052;28;20119;-83
2022/07/05 10:16:47;;;;;;;4.82;0.50;;;24.70;97.10;;;;;;5096107;28;20035;-83
2022/07/05 10:19:18;;;;;;;2.50;0.50;;;25.10;96.70;;;;;;5093254;28;20111;-85
2022/07/05 10:21:45;;;;;;;5.75;0.80;;;25.00;96.40;;;;;;5097233;28;20114;-84
2022/07/05 10:24:13;;;;;;;3.22;0.60;;;24.70;96.40;;;;;;5101701;28;20040;-82
2022/07/05 10:26:39;;;;;;;4.03;0.50;;;24.40;96.60;;;;;;5093673;28;20032;-83
2022/07/05 10:29:06;;;;;;;1.88;0.50;;;24.40;96.30;;;;;;5095669;28;20041;-83
2022/07/05 10:31:32;;;;;;;2.00;0.50;;;24.10;96.30;;;;;;5078184;28;20055;-83
2022/07/05 10:34:07;;;;;;;;;;;23.70;97.00;;;;;;5079108;28;20100;-83
2022/07/05 10:36:34;;;;;;;3.83;0.50;;;23.40;97.20;;;;;;5094356;28;20033;-84
2022/07/05 10:39:00;;;;;;;2.72;0.40;;;23.20;97.40;;;;;;5060110;28;20111;-83
2022/07/05 10:41:29;;;;;;;2.85;0.60;;;23.30;97.20;;;;;;5093705;28;20120;-82
2022/07/05 10:43:55;;;;;;;3.72;0.45;;;23.40;96.70;;;;;;5095101;28;20035;-83
2022/07/05 10:46:34;;;;;;;1.60;0.32;;;23.60;96.00;;;;;;5113427;28;20031;-83
2022/07/05 10:49:11;;;;;;;3.58;0.60;;;23.90;96.20;;;;;;5091320;28;20132;-83
2022/07/05 10:51:37;;;;;;;2.60;0.40;;;24.60;96.10;;;;;;5057547;28;20068;-84
2022/07/05 10:54:03;;;;;;;;;;;25.20;95.80;;;;;;5080804;28;20069;-83
2022/07/05 10:56:28;;;;;;;;;;;25.40;95.80;;;;;;5096118;28;20252;-83
2022/07/05 10:59:04;;;;;;;;;;;25.20;95.40;;;;;;5097045;28;19915;-83
2022/07/05 11:01:34;;;;;;;;;;;24.90;95.40;;;;;;5085007;28;19978;-83
2022/07/05 11:04:03;;;;;;;;;;;24.30;95.10;;;;;;5097923;28;19970;-81
2022/07/05 11:06:30;;;;;;;;;;;23.90;95.50;;;;;;5095900;28;19916;-83
2022/07/05 11:09:02;;;;;;;;;;;23.80;96.20;;;;;;5097751;28;20002;-81
2022/07/05 11:11:29;;;;;;;;;;;23.90;96.00;;;;;;5110363;28;19916;-83
2022/07/05 11:13:55;;;;;;;;;;;24.30;95.70;;;;;;5095469;28;19984;-82
2022/07/05 11:16:24;;;;;;;;;;;24.30;95.40;;;;;;5096174;28;19923;-81
2022/07/05 11:18:51;;;;;;;;;;;24.40;94.90;;;;;;5104519;28;19926;-83
2022/07/05 11:21:18;;;;;;;;;;;24.40;94.30;;;;;;5094844;28;20057;-82
2022/07/05 11:23:43;;;;;;;;;;;24.10;94.40;;;;;;5094674;28;19915;-83
2022/07/05 11:26:10;;;;;;;;;;;23.90;94.70;;;;;;5094452;28;20295;-82
2022/07/05 11:28:46;;;;;;;;;;;23.70;95.20;;;;;;5076437;28;20444;-84
2022/07/05 11:31:13;;;;;;;;;;;24.10;95.30;;;;;;5094675;28;20343;-83
2022/07/05 11:33:43;;;;;;;;;;;24.70;95.10;;;;;;5094093;28;20342;-82
2022/07/05 11:36:26;;;;;;;;;;;25.00;94.90;;;;;;5075873;28;19915;-82
2022/07/05 11:39:04;;;;;;;;;;;25.00;95.50;;;;;;5094456;28;19915;-83
2022/07/05 11:41:31;;;;;;;;;;;25.30;94.90;;;;;;5092056;28;19920;-82
2022/07/05 11:43:57;;;;;;;;;;;25.40;95.20;;;;;;5077764;28;20280;-84
2022/07/05 11:46:23;;;;;;;;;;;25.50;95.00;;;;;;5090592;28;19916;-84
2022/07/05 11:48:49;;;;;;;;;;;25.60;95.00;;;;;;5089869;28;19923;-84
2022/07/05 11:51:15;;;;;;;;;;;25.70;95.00;;;;;;5060523;28;19916;-85
2022/07/05 11:53:42;;;;;;;;;;;25.60;95.00;;;;;;5052270;28;20394;-84
2022/07/05 11:56:07;;;;;;;;;;;25.60;94.20;;;;;;5065432;28;20535;-84
2022/07/05 11:58:33;;;;;;;;;;;25.20;93.80;;;;;;5066841;28;19916;-83
2022/07/05 12:00:59;;;;;;;;;;;24.90;93.70;;;;;;5085554;28;19920;-83
2022/07/05 12:03:25;;;;;;;;;;;24.70;94.40;;;;;;5079518;28;19915;-84
2022/07/05 12:05:52;;;;;;;;;;;24.30;94.10;;;;;;5076932;28;19930;-84
2022/07/05 12:08:21;;;;;;;;;;;23.80;94.90;;;;;;5077264;28;19955;-84
2022/07/05 12:13:42;;;;;;;;;;;22.80;96.60;;;;;;5089418;28;19916;-84
2022/07/05 12:16:07;;;;;;;;;;;22.30;96.90;;;;;;5086266;28;19960;-83
2022/07/05 12:18:45;;;;;;;;;;;21.60;98.30;;;;;;5062996;28;19971;-82
2022/07/05 12:21:13;;;;;;;;;;;21.60;99.50;;;;;;5091405;28;20282;-83
2022/07/05 12:23:40;;;;;;;;;;;21.70;99.50;;;;;;5076150;28;20394;-83
2022/07/05 12:26:06;;;;;;;;;;;21.60;99.90;;;;;;5092202;28;19915;-83
2022/07/05 12:28:32;;;;;;;;;;;21.60;99.90;;;;;;5090041;28;20006;-83
2022/07/05 12:30:58;;;;;;;;;;;21.70;98.90;;;;;;5081721;28;19962;-83
2022/07/05 12:33:23;;;;;;;;;;;21.90;98.50;;;;;;5071839;28;19963;-82
2022/07/05 12:35:50;;;;;;;;;;;21.70;98.70;;;;;;5060328;28;19916;-83
2022/07/05 12:38:18;;;;;;;;;;;21.70;98.80;;;;;;5077291;28;19919;-81
2022/07/05 12:40:45;;;;;;;;;;;21.80;98.90;;;;;;5090931;28;19916;-83
2022/07/05 12:43:15;;;;;;;;;;;21.90;98.80;;;;;;5074260;28;20003;-81
2022/07/05 12:46:00;;;;;;;;;;;22.00;98.50;;;;;;5092100;28;19985;-82
2022/07/05 12:48:31;;;;;;;;;;;22.00;98.50;;;;;;5091012;28;19922;-81
2022/07/05 12:50:57;;;;;;;;;;;21.90;98.20;;;;;;5075081;28;19987;-81
2022/07/05 12:58:55;;;;;;;;;;;22.00;98.50;;;;;;5077234;28;19962;-81
2022/07/05 13:01:25;;;;;;;;;;;21.60;97.90;;;;;;5091965;28;19916;-82
2022/07/05 13:04:00;;;;;;;;;;;21.50;98.10;;;;;;5097865;28;19924;-81
2022/07/05 13:06:39;;;;;;;;;;;21.40;97.60;;;;;;5091291;28;19916;-82
2022/07/05 13:09:05;;;;;;;;;;;21.50;97.80;;;;;;5063814;28;20344;-80
2022/07/05 13:11:31;;;;;;;;;;;21.90;97.70;;;;;;5075551;28;19923;-82
2022/07/05 13:13:56;;;;;;;;;;;22.30;97.50;;;;;;5093142;28;19916;-82
2022/07/05 13:16:22;;;;;;;;;;;22.80;97.50;;;;;;5092541;28;19965;-82
2022/07/05 13:18:47;;;;;;;;;;;23.00;96.90;;;;;;5076483;28;20304;-81